Time;durP1;ratioP1;P1;durP2;ratioP2;P2;SDS_P1;SDS_P2;PMS_P1;PMS_P2;Temp;Humidity;BMP_temperature;BMP_pressure;BME280_temperature;BME280_humidity;BME280_pressure;Samples;Min_cycle;Max_cycle;Signal;HPM_P1;HPM_P2
2022/03/17 00:02:23;;;;;;;9.50;6.22;;;11.90;75.40;;;;;;5020587;28;20103;-75
2022/03/17 00:04:53;;;;;;;10.00;5.90;;;11.90;75.40;;;;;;5020544;28;20089;-75
2022/03/17 00:07:21;;;;;;;8.02;6.03;;;11.90;75.50;;;;;;5036847;28;20107;-75
2022/03/17 00:09:48;;;;;;;9.75;6.35;;;11.90;75.50;;;;;;5053331;28;20037;-75
2022/03/17 00:12:18;;;;;;;10.00;6.70;;;11.90;75.50;;;;;;5053459;28;20099;-75
2022/03/17 00:14:45;;;;;;;9.30;5.60;;;11.90;75.60;;;;;;5020547;28;20150;-75
2022/03/17 00:17:12;;;;;;;8.98;5.75;;;11.90;75.60;;;;;;5053453;28;20048;-75
2022/03/17 00:19:39;;;;;;;10.27;5.60;;;11.90;75.70;;;;;;5037033;28;20052;-74
2022/03/17 00:22:08;;;;;;;10.02;6.57;;;11.90;75.80;;;;;;5053197;28;20444;-75
2022/03/17 00:24:36;;;;;;;9.45;6.07;;;11.90;75.80;;;;;;5037066;28;20103;-75
2022/03/17 00:27:08;;;;;;;11.02;6.88;;;11.90;75.80;;;;;;5036455;28;20513;-75
2022/03/17 00:29:36;;;;;;;10.35;7.53;;;11.90;75.80;;;;;;5053083;28;20076;-75
2022/03/17 00:32:04;;;;;;;9.82;6.22;;;11.90;76.60;;;;;;5020405;28;20049;-75
2022/03/17 00:34:31;;;;;;;11.05;7.10;;;11.90;76.00;;;;;;5036438;28;20057;-75
2022/03/17 00:36:58;;;;;;;10.02;6.70;;;11.80;76.00;;;;;;5036682;28;20049;-75
2022/03/17 00:39:26;;;;;;;9.93;6.63;;;11.80;76.10;;;;;;5036447;28;20069;-75
2022/03/17 00:41:53;;;;;;;10.32;7.50;;;11.80;76.10;;;;;;5052809;28;20041;-75
2022/03/17 00:44:20;;;;;;;9.98;6.47;;;11.80;76.20;;;;;;5036369;28;20064;-75
2022/03/17 00:46:47;;;;;;;8.90;5.90;;;11.80;76.20;;;;;;5036226;28;20041;-75
2022/03/17 00:49:15;;;;;;;10.02;6.22;;;11.80;76.30;;;;;;5053858;28;20037;-75
2022/03/17 00:51:42;;;;;;;9.75;6.13;;;11.80;76.90;;;;;;5052948;28;20041;-75
2022/03/17 00:54:09;;;;;;;9.90;6.65;;;11.80;76.30;;;;;;5036232;28;20487;-75
2022/03/17 00:56:37;;;;;;;10.35;6.97;;;11.80;76.40;;;;;;5052880;28;20124;-75
2022/03/17 00:59:04;;;;;;;10.68;6.82;;;11.80;76.40;;;;;;5036210;28;20052;-75
2022/03/17 01:01:32;;;;;;;10.75;6.47;;;11.80;77.00;;;;;;5036105;28;20412;-75
2022/03/17 01:04:02;;;;;;;10.73;7.45;;;11.80;76.60;;;;;;5052659;28;20040;-75
2022/03/17 01:06:29;;;;;;;10.07;6.68;;;11.70;76.50;;;;;;5051912;28;20045;-75
2022/03/17 01:08:56;;;;;;;11.48;6.68;;;11.70;76.70;;;;;;5036166;28;20069;-75
2022/03/17 01:11:23;;;;;;;10.82;6.80;;;11.70;77.40;;;;;;5035886;28;20044;-75
2022/03/17 01:13:50;;;;;;;11.13;7.00;;;11.70;76.90;;;;;;5053290;28;20073;-80
2022/03/17 01:16:17;;;;;;;9.40;6.53;;;11.60;76.90;;;;;;5052441;28;20049;-75
2022/03/17 01:18:44;;;;;;;10.40;6.07;;;11.70;77.00;;;;;;5035755;28;20049;-75
2022/03/17 01:21:11;;;;;;;10.77;6.38;;;11.60;77.00;;;;;;5019613;28;20425;-75
2022/03/17 01:23:39;;;;;;;9.20;6.25;;;11.60;77.70;;;;;;5035672;28;20429;-75
2022/03/17 01:26:08;;;;;;;10.13;5.85;;;11.60;77.10;;;;;;5021149;28;20049;-75
2022/03/17 01:28:35;;;;;;;10.00;6.43;;;11.60;77.20;;;;;;5054975;28;20055;-75
2022/03/17 01:31:02;;;;;;;7.85;4.85;;;11.60;77.80;;;;;;5055256;28;20051;-75
2022/03/17 01:33:30;;;;;;;7.55;5.53;;;11.60;77.30;;;;;;5055349;28;20045;-75
2022/03/17 01:35:57;;;;;;;8.63;5.43;;;11.50;77.30;;;;;;5055475;28;20497;-75
2022/03/17 01:38:24;;;;;;;11.10;6.10;;;11.50;77.40;;;;;;5038706;28;20169;-75
2022/03/17 01:40:51;;;;;;;7.93;5.28;;;11.50;77.40;;;;;;5055303;28;20033;-75
2022/03/17 01:43:22;;;;;;;9.38;5.13;;;11.50;77.50;;;;;;5055183;28;20040;-75
2022/03/17 01:45:51;;;;;;;8.95;5.93;;;11.50;77.50;;;;;;5055281;28;20067;-75
2022/03/17 01:48:22;;;;;;;9.23;4.38;;;11.50;77.50;;;;;;5038623;28;20040;-74
2022/03/17 01:50:49;;;;;;;8.32;5.20;;;11.60;77.60;;;;;;5038431;28;20052;-75
2022/03/17 01:53:24;;;;;;;8.43;5.45;;;11.60;77.50;;;;;;5071775;28;20044;-75
2022/03/17 01:55:51;;;;;;;9.35;6.10;;;11.60;77.40;;;;;;5038494;28;20048;-75
2022/03/17 01:58:18;;;;;;;8.43;5.47;;;11.60;77.40;;;;;;5055011;28;20048;-75
2022/03/17 02:00:48;;;;;;;9.00;5.10;;;11.70;77.40;;;;;;5038693;28;20059;-75
2022/03/17 02:03:21;;;;;;;8.32;5.07;;;11.70;77.30;;;;;;5038893;28;20048;-75
2022/03/17 02:05:51;;;;;;;8.18;5.30;;;11.70;77.30;;;;;;5054731;28;20102;-75
2022/03/17 02:08:21;;;;;;;7.88;4.90;;;11.70;77.40;;;;;;5054727;28;20044;-75
2022/03/17 02:13:35;;;;;;;10.60;5.82;;;11.70;77.40;;;;;;5054387;28;20044;-76
2022/03/17 02:16:07;;;;;;;8.55;5.10;;;11.70;77.40;;;;;;5037909;28;20078;-75
2022/03/17 02:18:34;;;;;;;7.93;4.88;;;11.70;77.40;;;;;;5071086;28;20036;-75
2022/03/17 02:21:05;;;;;;;6.88;4.45;;;11.70;77.50;;;;;;5037627;28;20040;-75
2022/03/17 02:26:21;;;;;;;6.93;4.50;;;11.70;77.50;;;;;;5071151;28;20052;-75
2022/03/17 02:28:51;;;;;;;7.75;4.63;;;11.80;77.60;;;;;;5071035;28;20047;-75
2022/03/17 02:31:19;;;;;;;7.65;4.68;;;11.80;77.60;;;;;;5037771;28;20139;-75
2022/03/17 02:33:47;;;;;;;7.25;4.38;;;11.80;77.60;;;;;;5021581;28;20055;-75
2022/03/17 02:36:14;;;;;;;7.90;4.90;;;11.80;77.60;;;;;;5054551;28;20059;-75
2022/03/17 02:38:43;;;;;;;8.80;4.93;;;11.80;77.60;;;;;;5037902;28;20492;-75
2022/03/17 02:41:22;;;;;;;8.15;4.72;;;11.80;77.60;;;;;;5054939;28;20051;-75
2022/03/17 02:43:58;;;;;;;7.90;5.22;;;11.80;77.60;;;;;;5069991;28;20048;-81
2022/03/17 02:46:32;;;;;;;9.13;4.70;;;11.90;77.60;;;;;;5059427;28;20051;-80
2022/03/17 02:49:00;;;;;;;8.45;5.28;;;11.90;77.70;;;;;;5074978;28;20040;-81
2022/03/17 02:51:27;;;;;;;7.20;4.07;;;11.90;77.60;;;;;;5075083;28;20046;-81
2022/03/17 02:53:54;;;;;;;10.77;6.30;;;11.90;77.60;;;;;;5075010;28;20063;-81
2022/03/17 02:56:21;;;;;;;9.35;5.43;;;11.90;77.70;;;;;;5058244;28;20047;-81
2022/03/17 02:58:48;;;;;;;8.75;5.95;;;11.90;77.70;;;;;;5058102;28;20476;-81
2022/03/17 03:01:19;;;;;;;14.00;8.57;;;12.00;77.70;;;;;;5057620;28;20093;-81
2022/03/17 03:03:46;;;;;;;10.98;7.25;;;12.00;77.80;;;;;;5038581;28;20070;-81
2022/03/17 03:06:14;;;;;;;11.73;7.03;;;12.10;77.80;;;;;;5054685;28;20040;-80
2022/03/17 03:08:41;;;;;;;12.70;7.65;;;12.10;77.80;;;;;;5055233;28;20044;-80
2022/03/17 03:11:09;;;;;;;12.77;8.50;;;12.10;77.90;;;;;;5054669;28;20049;-75
2022/03/17 03:13:36;;;;;;;14.43;8.38;;;12.10;78.00;;;;;;5053927;28;20094;-75
2022/03/17 03:16:04;;;;;;;13.63;8.57;;;12.10;78.00;;;;;;5038026;28;20126;-81
2022/03/17 03:18:31;;;;;;;12.63;9.00;;;12.20;78.20;;;;;;5038124;28;20043;-81
2022/03/17 03:20:58;;;;;;;13.10;8.05;;;12.10;78.20;;;;;;5037736;28;20131;-81
2022/03/17 03:23:25;;;;;;;13.32;8.40;;;12.10;78.30;;;;;;5038103;28;20041;-81
2022/03/17 03:25:52;;;;;;;13.98;8.85;;;12.10;78.50;;;;;;5071184;28;20485;-81
2022/03/17 03:28:21;;;;;;;14.15;8.77;;;12.10;78.60;;;;;;5055965;28;20102;-80
2022/03/17 03:30:50;;;;;;;18.02;11.73;;;12.10;79.00;;;;;;5042273;28;20033;-80
2022/03/17 03:33:17;;;;;;;17.73;10.48;;;12.00;79.70;;;;;;5075143;28;20079;-80
2022/03/17 03:38:30;;;;;;;17.65;11.05;;;11.70;80.80;;;;;;5075889;28;20041;-80
2022/03/17 03:40:59;;;;;;;20.27;11.73;;;11.50;81.50;;;;;;5041671;28;20443;-80
2022/03/17 03:43:26;;;;;;;17.85;10.45;;;11.40;82.50;;;;;;5058335;28;20412;-81
2022/03/17 03:45:54;;;;;;;16.50;9.45;;;11.30;82.60;;;;;;5057898;28;20036;-80
2022/03/17 03:48:21;;;;;;;17.45;10.93;;;11.20;82.80;;;;;;5057733;28;20055;-80
2022/03/17 03:50:49;;;;;;;17.52;10.13;;;11.20;83.70;;;;;;5025019;28;20456;-81
2022/03/17 03:53:16;;;;;;;22.42;12.15;;;11.10;84.10;;;;;;5058195;28;20072;-80
2022/03/17 03:55:43;;;;;;;18.60;11.65;;;11.10;85.00;;;;;;5057957;28;20086;-80
2022/03/17 03:58:11;;;;;;;17.85;11.18;;;11.00;85.20;;;;;;5074188;28;20048;-75
2022/03/17 04:00:41;;;;;;;18.73;12.18;;;11.00;85.70;;;;;;5024693;28;20090;-75
2022/03/17 04:03:09;;;;;;;18.85;11.45;;;11.00;86.10;;;;;;5040919;28;20408;-75
2022/03/17 04:05:37;;;;;;;18.48;11.30;;;11.00;86.70;;;;;;5074819;28;20041;-74
2022/03/17 04:08:04;;;;;;;18.45;12.55;;;10.90;87.70;;;;;;5057011;28;20557;-75
2022/03/17 04:10:32;;;;;;;17.20;11.05;;;10.90;88.70;;;;;;5040743;28;20045;-75
2022/03/17 04:13:00;;;;;;;14.75;10.48;;;10.80;89.10;;;;;;5040207;28;20055;-75
2022/03/17 04:15:27;;;;;;;12.70;8.20;;;10.80;89.40;;;;;;5057060;28;20071;-74
2022/03/17 04:17:54;;;;;;;12.55;7.90;;;10.80;89.30;;;;;;5040659;28;20072;-75
2022/03/17 04:20:24;;;;;;;11.40;7.45;;;10.80;89.20;;;;;;5073475;28;20501;-75
2022/03/17 04:22:54;;;;;;;12.60;7.28;;;10.80;89.50;;;;;;5073097;28;20075;-75
2022/03/17 04:25:21;;;;;;;10.35;6.82;;;10.70;89.60;;;;;;5041348;28;20060;-75
2022/03/17 04:27:56;;;;;;;8.07;5.40;;;10.70;89.40;;;;;;5053233;28;20041;-75
2022/03/17 04:30:23;;;;;;;6.40;4.30;;;10.70;89.40;;;;;;5037373;28;20052;-75
2022/03/17 04:32:53;;;;;;;5.70;3.33;;;10.70;89.20;;;;;;5053550;28;20053;-74
2022/03/17 04:35:21;;;;;;;6.18;3.45;;;10.60;88.80;;;;;;5037046;28;20055;-74
2022/03/17 04:37:48;;;;;;;5.00;2.63;;;10.60;88.80;;;;;;5020496;28;20041;-74
2022/03/17 04:40:16;;;;;;;5.68;3.40;;;10.50;88.70;;;;;;5052403;28;20084;-75
2022/03/17 04:42:43;;;;;;;6.55;2.47;;;10.40;88.70;;;;;;5053155;28;20041;-75
2022/03/17 04:45:10;;;;;;;4.28;1.90;;;10.40;88.50;;;;;;5036550;28;20107;-75
2022/03/17 04:47:37;;;;;;;4.70;2.05;;;10.40;88.50;;;;;;5036334;28;20132;-74
2022/03/17 04:50:07;;;;;;;2.90;1.60;;;10.30;88.40;;;;;;5053160;28;20409;-75
2022/03/17 04:55:20;;;;;;;3.80;1.80;;;10.30;88.30;;;;;;5039409;28;20397;-80
2022/03/17 04:57:47;;;;;;;4.85;2.47;;;10.20;88.20;;;;;;5054082;28;20566;-75
2022/03/17 05:00:15;;;;;;;4.60;1.80;;;10.20;88.20;;;;;;5054609;28;20052;-80
2022/03/17 05:02:42;;;;;;;5.65;2.80;;;10.10;88.20;;;;;;5020789;28;20094;-80
2022/03/17 05:05:09;;;;;;;6.13;2.55;;;10.00;88.20;;;;;;5054549;28;20072;-79
2022/03/17 05:07:36;;;;;;;4.20;1.70;;;10.00;88.10;;;;;;5052928;28;20037;-74
2022/03/17 05:10:06;;;;;;;5.22;2.53;;;10.00;88.10;;;;;;5019630;28;20044;-74
2022/03/17 05:12:33;;;;;;;3.40;1.63;;;9.90;88.10;;;;;;5035949;28;20056;-80
2022/03/17 05:15:00;;;;;;;3.47;1.75;;;9.90;88.00;;;;;;5036566;28;20079;-79
2022/03/17 05:17:27;;;;;;;5.57;2.60;;;9.90;87.90;;;;;;5052343;28;20531;-74
2022/03/17 05:19:54;;;;;;;5.07;2.75;;;9.90;87.90;;;;;;5052476;28;20056;-75
2022/03/17 05:22:21;;;;;;;4.82;2.88;;;9.90;87.90;;;;;;5035734;28;20041;-75
2022/03/17 05:24:50;;;;;;;5.15;3.17;;;9.90;87.90;;;;;;5036208;28;20111;-75
2022/03/17 05:27:17;;;;;;;6.18;3.35;;;9.90;87.80;;;;;;5035586;28;20061;-75
2022/03/17 05:29:44;;;;;;;7.75;3.95;;;9.90;87.70;;;;;;5052341;28;20076;-75
2022/03/17 05:32:11;;;;;;;6.13;3.70;;;9.80;87.60;;;;;;5052232;28;20114;-74
2022/03/17 05:34:38;;;;;;;8.07;3.28;;;9.80;87.50;;;;;;5035254;28;20769;-74
2022/03/17 05:37:05;;;;;;;7.25;3.67;;;9.80;87.50;;;;;;5051777;28;20064;-74
2022/03/17 05:39:32;;;;;;;6.78;3.83;;;9.80;87.50;;;;;;5035433;28;20059;-74
2022/03/17 05:41:59;;;;;;;7.80;4.28;;;9.80;87.40;;;;;;5053113;28;20047;-74
2022/03/17 05:44:31;;;;;;;7.28;3.85;;;9.80;87.40;;;;;;5051719;28;20504;-74
2022/03/17 05:46:58;;;;;;;7.15;2.88;;;9.80;87.30;;;;;;5067990;28;20049;-74
2022/03/17 05:49:25;;;;;;;6.30;2.67;;;9.80;87.20;;;;;;5051828;28;20041;-75
2022/03/17 05:51:51;;;;;;;8.45;3.45;;;9.80;87.00;;;;;;5035212;28;20043;-75
2022/03/17 05:54:18;;;;;;;5.90;2.30;;;9.70;86.80;;;;;;5035145;28;20501;-74
2022/03/17 05:56:48;;;;;;;6.15;2.30;;;9.70;86.70;;;;;;5035828;28;20052;-74
2022/03/17 05:59:15;;;;;;;6.07;1.80;;;9.70;86.60;;;;;;5051843;28;20057;-75
2022/03/17 06:01:42;;;;;;;3.88;1.70;;;9.70;86.40;;;;;;5035568;28;20044;-75
2022/03/17 06:04:32;;;;;;;8.30;1.98;;;9.60;86.30;;;;;;5053654;28;20037;-80
2022/03/17 06:07:00;;;;;;;6.22;2.00;;;9.60;86.20;;;;;;5036091;28;20136;-80
2022/03/17 06:09:27;;;;;;;6.03;2.10;;;9.50;86.10;;;;;;5052368;28;20140;-79
2022/03/17 06:11:57;;;;;;;7.88;2.10;;;9.50;86.10;;;;;;5051789;28;20037;-79
2022/03/17 06:14:24;;;;;;;4.85;1.58;;;9.50;85.90;;;;;;5035452;28;20056;-79
2022/03/17 06:16:52;;;;;;;6.43;1.55;;;9.50;86.00;;;;;;5051586;28;20480;-75
2022/03/17 06:19:20;;;;;;;8.18;1.45;;;9.40;85.90;;;;;;5018480;28;20049;-74
2022/03/17 06:21:47;;;;;;;3.90;0.95;;;9.40;86.00;;;;;;5034823;28;20049;-75
2022/03/17 06:24:14;;;;;;;6.22;1.30;;;9.40;85.90;;;;;;5035020;28;20060;-74
2022/03/17 06:26:41;;;;;;;3.05;1.00;;;9.40;85.90;;;;;;5034535;28;20053;-74
2022/03/17 06:29:08;;;;;;;5.82;1.45;;;9.40;85.90;;;;;;5051230;28;20037;-75
2022/03/17 06:31:39;;;;;;;6.32;1.33;;;9.40;85.90;;;;;;5034801;28;20049;-75
2022/03/17 06:34:06;;;;;;;5.13;1.00;;;9.30;85.70;;;;;;5035249;28;20098;-75
2022/03/17 06:36:34;;;;;;;6.20;1.15;;;9.30;85.80;;;;;;5034763;28;20044;-75
2022/03/17 06:39:01;;;;;;;4.00;1.20;;;9.30;85.70;;;;;;5034528;28;20052;-75
2022/03/17 06:41:28;;;;;;;5.28;1.08;;;9.30;85.50;;;;;;5034470;28;20122;-74
2022/03/17 06:43:55;;;;;;;3.20;0.80;;;9.20;85.60;;;;;;5052195;28;20389;-74
2022/03/17 06:46:25;;;;;;;2.88;0.70;;;9.20;85.60;;;;;;5051038;28;20072;-74
2022/03/17 06:48:52;;;;;;;4.72;0.80;;;9.20;85.60;;;;;;5018306;28;20382;-75
2022/03/17 06:51:19;;;;;;;7.72;1.85;;;9.20;85.70;;;;;;5050993;28;20044;-75
2022/03/17 06:53:46;;;;;;;4.30;1.02;;;9.30;85.60;;;;;;5034714;28;20370;-75
2022/03/17 06:56:13;;;;;;;3.65;1.55;;;9.30;85.70;;;;;;5050934;28;20041;-74
2022/03/17 06:58:41;;;;;;;3.80;0.85;;;9.30;85.60;;;;;;5018854;28;20053;-80
2022/03/17 07:01:12;;;;;;;2.67;0.55;;;9.30;85.50;;;;;;5036019;28;20493;-81
2022/03/17 07:03:39;;;;;;;4.47;0.77;;;9.30;85.50;;;;;;5036904;28;20056;-81
2022/03/17 07:06:09;;;;;;;5.68;0.68;;;9.30;85.30;;;;;;5023390;28;20045;-80
2022/03/17 07:08:36;;;;;;;3.03;0.93;;;9.30;85.40;;;;;;5038959;28;20037;-80
2022/03/17 07:11:03;;;;;;;3.72;0.70;;;9.40;85.30;;;;;;5055766;28;20041;-80
2022/03/17 07:13:30;;;;;;;4.75;0.75;;;9.40;85.10;;;;;;5038858;28;20178;-79
2022/03/17 07:15:57;;;;;;;2.80;0.60;;;9.40;85.00;;;;;;5038850;28;20102;-81
2022/03/17 07:18:27;;;;;;;4.38;1.27;;;9.40;84.90;;;;;;5055307;28;20045;-81
2022/03/17 07:20:59;;;;;;;6.72;1.27;;;9.30;84.90;;;;;;5056373;28;20056;-80
2022/03/17 07:23:26;;;;;;;4.80;1.33;;;9.30;84.90;;;;;;5038616;28;20040;-80
2022/03/17 07:25:55;;;;;;;4.88;1.25;;;9.30;84.90;;;;;;5038485;28;20064;-80
2022/03/17 07:28:22;;;;;;;7.38;1.13;;;9.30;84.90;;;;;;5071484;28;20049;-81
2022/03/17 07:30:49;;;;;;;5.40;1.13;;;9.20;84.70;;;;;;5054999;28;20431;-80
2022/03/17 07:33:16;;;;;;;6.60;2.15;;;9.20;84.70;;;;;;5054807;28;20044;-80
2022/03/17 07:35:47;;;;;;;5.20;1.00;;;9.20;84.80;;;;;;5054410;28;20057;-80
2022/03/17 07:38:16;;;;;;;4.53;1.40;;;9.10;84.90;;;;;;5054666;28;20141;-80
2022/03/17 07:40:46;;;;;;;5.22;1.05;;;9.10;84.90;;;;;;5055119;28;20147;-79
2022/03/17 07:43:13;;;;;;;7.40;0.95;;;9.10;84.90;;;;;;5055333;28;20044;-80
2022/03/17 07:46:03;;;;;;;6.75;1.40;;;9.20;84.80;;;;;;5049558;28;20436;-81
2022/03/17 07:48:49;;;;;;;5.68;1.45;;;9.30;84.70;;;;;;5054839;28;20188;-81
2022/03/17 07:51:24;;;;;;;7.93;2.08;;;9.30;84.20;;;;;;5071259;28;20474;-81
2022/03/17 07:53:51;;;;;;;6.07;0.90;;;9.40;84.10;;;;;;5054613;28;20043;-81
2022/03/17 07:56:20;;;;;;;5.22;1.10;;;9.40;83.60;;;;;;5038041;28;20114;-81
2022/03/17 07:58:47;;;;;;;3.75;0.93;;;9.40;83.40;;;;;;5071045;28;20417;-82
2022/03/17 08:01:17;;;;;;;6.07;1.05;;;9.40;82.30;;;;;;5054457;28;20120;-82
2022/03/17 08:03:44;;;;;;;1.58;0.45;;;9.40;82.50;;;;;;5054263;28;20037;-82
2022/03/17 08:06:13;;;;;;;3.55;0.30;;;9.50;82.40;;;;;;5037797;28;20037;-82
2022/03/17 08:08:41;;;;;;;3.45;0.38;;;9.50;82.30;;;;;;5054314;28;20056;-82
2022/03/17 08:11:09;;;;;;;2.58;0.30;;;9.50;81.70;;;;;;5054347;28;20063;-82
2022/03/17 08:13:36;;;;;;;3.03;0.30;;;9.50;81.60;;;;;;5054196;28;20040;-82
2022/03/17 08:16:03;;;;;;;4.40;0.50;;;9.50;81.00;;;;;;5037761;28;20135;-82
2022/03/17 08:18:32;;;;;;;4.70;0.30;;;9.50;81.60;;;;;;5036859;28;20055;-82
2022/03/17 08:20:59;;;;;;;4.68;0.40;;;9.50;80.40;;;;;;5053813;28;20140;-82
2022/03/17 08:23:28;;;;;;;3.40;0.40;;;9.50;80.50;;;;;;5055182;28;20066;-82
2022/03/17 08:25:55;;;;;;;4.30;0.55;;;9.60;80.10;;;;;;5053780;28;20068;-81
2022/03/17 08:28:25;;;;;;;4.82;0.32;;;9.60;80.20;;;;;;5057381;28;20036;-81
2022/03/17 08:30:53;;;;;;;4.25;0.50;;;9.60;80.00;;;;;;5075124;28;20064;-80
2022/03/17 08:33:20;;;;;;;2.70;0.50;;;9.60;80.10;;;;;;5057218;28;20055;-79
2022/03/17 08:35:48;;;;;;;3.75;0.40;;;9.60;79.60;;;;;;5041221;28;20044;-80
2022/03/17 08:38:15;;;;;;;3.95;0.43;;;9.60;79.70;;;;;;5057209;28;20045;-81
2022/03/17 08:40:42;;;;;;;2.85;0.50;;;9.60;79.40;;;;;;5073494;28;20055;-81
2022/03/17 08:43:12;;;;;;;5.22;0.40;;;9.60;79.00;;;;;;5040373;28;20044;-82
2022/03/17 08:51:19;;;;;;;4.25;0.50;;;10.00;78.70;;;;;;5058778;28;20049;-82
2022/03/17 08:53:47;;;;;;;2.88;0.63;;;10.00;78.00;;;;;;5040828;28;20052;-80
2022/03/17 08:56:15;;;;;;;5.57;1.02;;;10.10;78.00;;;;;;5040284;28;20075;-82
2022/03/17 08:58:42;;;;;;;3.67;0.38;;;10.20;77.40;;;;;;5074590;28;20048;-83
2022/03/17 09:01:11;;;;;;;2.85;0.35;;;10.20;77.50;;;;;;5040242;28;20068;-81
2022/03/17 09:03:38;;;;;;;2.53;0.40;;;10.30;77.40;;;;;;5040952;28;20469;-81
2022/03/17 09:06:06;;;;;;;8.63;0.57;;;10.40;77.50;;;;;;5056641;28;20090;-82
2022/03/17 09:08:33;;;;;;;1.90;0.30;;;10.40;76.90;;;;;;5039849;28;20040;-81
2022/03/17 09:11:00;;;;;;;2.50;0.30;;;10.50;76.60;;;;;;5056437;28;20045;-81
2022/03/17 09:13:28;;;;;;;3.35;0.28;;;10.50;76.60;;;;;;5073229;28;20090;-81
2022/03/17 09:15:56;;;;;;;1.98;0.30;;;10.50;76.40;;;;;;5040309;28;20044;-80
2022/03/17 09:18:23;;;;;;;2.90;0.52;;;10.50;76.30;;;;;;5056477;28;20063;-82
2022/03/17 09:20:50;;;;;;;3.58;0.30;;;10.50;76.10;;;;;;5023260;28;20052;-79
2022/03/17 09:23:17;;;;;;;6.13;0.60;;;10.50;76.20;;;;;;5072766;28;20047;-80
2022/03/17 09:25:45;;;;;;;2.35;0.60;;;10.50;75.80;;;;;;5072295;28;20068;-80
2022/03/17 09:28:13;;;;;;;4.32;0.40;;;10.50;75.70;;;;;;5039429;28;20568;-80
2022/03/17 09:30:41;;;;;;;5.30;0.55;;;10.50;75.50;;;;;;5056372;28;20036;-80
2022/03/17 09:33:09;;;;;;;5.10;0.40;;;10.50;75.00;;;;;;5073780;28;20048;-80
2022/03/17 09:35:36;;;;;;;2.08;0.32;;;10.40;75.20;;;;;;5056106;28;20064;-82
2022/03/17 09:38:05;;;;;;;4.30;0.43;;;10.40;75.00;;;;;;5039448;28;20048;-80
2022/03/17 09:40:35;;;;;;;2.65;0.57;;;10.40;75.10;;;;;;5023120;28;20476;-81
2022/03/17 09:45:51;;;;;;;3.85;0.45;;;10.50;75.10;;;;;;5074349;28;20048;-81
2022/03/17 09:48:21;;;;;;;5.45;0.55;;;10.50;74.90;;;;;;5073898;28;20037;-81
2022/03/17 09:51:08;;;;;;;4.78;0.55;;;10.40;74.10;;;;;;5039658;28;20055;-81
2022/03/17 09:53:35;;;;;;;11.82;0.77;;;10.40;74.20;;;;;;5055691;28;20045;-81
2022/03/17 09:56:02;;;;;;;3.63;0.43;;;10.30;74.70;;;;;;5073444;28;20055;-81
2022/03/17 09:58:29;;;;;;;3.67;0.32;;;10.40;74.90;;;;;;5039491;28;20044;-81
2022/03/17 10:00:59;;;;;;;1.92;0.30;;;10.50;74.90;;;;;;5072425;28;20489;-82
2022/03/17 10:03:29;;;;;;;2.95;0.63;;;10.60;74.60;;;;;;5055451;28;20044;-81
2022/03/17 10:05:57;;;;;;;1.40;0.30;;;10.60;74.50;;;;;;5073396;28;20037;-80
2022/03/17 10:08:24;;;;;;;4.55;0.57;;;10.70;74.40;;;;;;5055375;28;20047;-80
2022/03/17 10:10:52;;;;;;;4.55;0.40;;;10.70;74.20;;;;;;5073665;28;20044;-84
2022/03/17 10:13:28;;;;;;;1.88;0.45;;;10.80;74.00;;;;;;5071566;28;20102;-80
2022/03/17 10:16:18;;;;;;;3.38;0.40;;;10.80;74.20;;;;;;5055148;28;20515;-80
2022/03/17 10:18:48;;;;;;;2.50;0.20;;;10.80;74.10;;;;;;5071977;28;20048;-80
2022/03/17 10:21:18;;;;;;;3.45;0.85;;;10.80;74.10;;;;;;5072911;28;20048;-80
2022/03/17 10:24:02;;;;;;;1.15;0.40;;;10.80;74.10;;;;;;5071654;28;20040;-80
2022/03/17 10:26:34;;;;;;;1.33;0.20;;;10.70;73.90;;;;;;5071670;28;20033;-80
2022/03/17 10:29:22;;;;;;;3.38;0.30;;;10.80;74.00;;;;;;5054785;28;20396;-80
2022/03/17 10:32:05;;;;;;;1.60;0.30;;;10.70;73.90;;;;;;5072767;28;20044;-80
2022/03/17 10:34:45;;;;;;;1.92;0.30;;;10.70;73.40;;;;;;5054926;28;20056;-80
2022/03/17 10:37:20;;;;;;;1.88;0.40;;;10.70;73.40;;;;;;5071026;28;20044;-81
2022/03/17 10:39:50;;;;;;;4.35;0.50;;;10.70;73.50;;;;;;5054827;28;20044;-80
2022/03/17 10:42:22;;;;;;;2.42;0.30;;;10.60;73.20;;;;;;5047910;28;20040;-79
2022/03/17 10:45:06;;;;;;;3.15;0.93;;;10.70;73.20;;;;;;5058063;28;20055;-80
2022/03/17 10:47:39;;;;;;;1.50;0.30;;;10.80;73.00;;;;;;5058107;28;20044;-80
2022/03/17 10:50:16;;;;;;;0.47;0.20;;;10.80;72.80;;;;;;5058226;28;20044;-80
2022/03/17 10:52:48;;;;;;;1.05;0.43;;;11.00;72.60;;;;;;5074772;28;20051;-80
2022/03/17 10:55:37;;;;;;;3.65;0.50;;;11.10;72.50;;;;;;5058338;28;20051;-80
2022/03/17 10:58:17;;;;;;;3.15;0.50;;;11.20;72.20;;;;;;5074668;28;20101;-80
2022/03/17 11:00:56;;;;;;;2.80;0.30;;;11.10;72.00;;;;;;5074663;28;20058;-82
2022/03/17 11:03:24;;;;;;;2.38;0.35;;;11.20;72.00;;;;;;5058051;28;20124;-80
2022/03/17 11:05:53;;;;;;;4.80;0.40;;;11.20;72.00;;;;;;5058256;28;20055;-80
2022/03/17 11:08:21;;;;;;;2.67;0.60;;;11.20;71.80;;;;;;5092687;28;20115;-81
2022/03/17 11:10:52;;;;;;;2.20;0.60;;;11.30;71.70;;;;;;5092747;28;20472;-80
2022/03/17 11:13:20;;;;;;;3.75;0.50;;;11.30;71.40;;;;;;5092599;28;20048;-81
2022/03/17 11:16:09;;;;;;;2.72;0.40;;;11.30;71.10;;;;;;5058110;28;20485;-81
2022/03/17 11:18:39;;;;;;;2.40;0.45;;;11.30;71.20;;;;;;5074813;28;20040;-81
2022/03/17 11:21:16;;;;;;;1.88;0.55;;;11.40;71.80;;;;;;5071525;28;20036;-82
2022/03/17 11:23:57;;;;;;;4.55;0.70;;;11.40;70.40;;;;;;5079919;28;20041;-82
2022/03/17 11:26:36;;;;;;;3.70;0.50;;;11.40;70.40;;;;;;5066219;28;20040;-80
2022/03/17 11:29:12;;;;;;;2.13;0.38;;;11.40;70.80;;;;;;5043996;28;20457;-79
2022/03/17 11:31:49;;;;;;;2.53;0.55;;;11.40;70.70;;;;;;5069738;28;20043;-79
2022/03/17 11:34:41;;;;;;;5.28;0.95;;;11.40;70.20;;;;;;5060726;28;20090;-81
2022/03/17 11:37:25;;;;;;;3.80;1.27;;;11.40;69.60;;;;;;5071177;28;20396;-81
2022/03/17 11:40:14;;;;;;;5.57;1.15;;;11.30;69.10;;;;;;5067996;28;20377;-81
2022/03/17 11:42:56;;;;;;;4.35;0.75;;;11.20;69.30;;;;;;5074356;28;20117;-81
2022/03/17 11:45:31;;;;;;;1.33;0.40;;;11.40;69.80;;;;;;5074206;28;20050;-80
2022/03/17 11:48:01;;;;;;;4.55;0.80;;;11.50;70.50;;;;;;5071677;28;20048;-80
2022/03/17 11:50:32;;;;;;;3.42;0.70;;;11.60;69.30;;;;;;5058567;28;20059;-81
2022/03/17 11:53:17;;;;;;;4.72;0.85;;;11.60;69.60;;;;;;5093920;28;20076;-81
2022/03/17 11:56:00;;;;;;;3.65;0.60;;;11.60;69.40;;;;;;5075954;28;20044;-81
2022/03/17 11:58:30;;;;;;;;;;;11.60;69.40;;;;;;5078030;28;20056;-81
2022/03/17 12:01:01;;;;;;;2.85;0.77;;;11.60;69.40;;;;;;5094342;28;19926;-81
2022/03/17 12:03:30;;;;;;;2.83;0.65;;;11.60;69.50;;;;;;5059792;28;20155;-80
2022/03/17 12:06:12;;;;;;;3.10;0.63;;;11.60;69.10;;;;;;5075858;28;20036;-81
2022/03/17 12:08:51;;;;;;;1.17;0.40;;;11.50;69.20;;;;;;5093622;28;20101;-81
2022/03/17 12:11:22;;;;;;;1.90;0.50;;;11.50;69.20;;;;;;5058918;28;20048;-79
2022/03/17 12:14:14;;;;;;;2.53;0.40;;;11.50;68.50;;;;;;5093282;28;20056;-80
2022/03/17 12:16:43;;;;;;;1.15;0.30;;;11.60;68.10;;;;;;5075863;28;20111;-81
2022/03/17 12:19:27;;;;;;;2.25;0.20;;;11.60;68.10;;;;;;5075624;28;20044;-82
2022/03/17 12:22:03;;;;;;;3.63;0.80;;;11.70;68.20;;;;;;5058641;28;20054;-81
2022/03/17 12:24:41;;;;;;;5.50;0.90;;;11.80;67.70;;;;;;5093492;28;20384;-81
2022/03/17 12:27:14;;;;;;;2.28;0.40;;;11.90;66.80;;;;;;5074625;28;20093;-81
2022/03/17 12:29:43;;;;;;;1.98;1.25;;;11.90;66.90;;;;;;5058492;28;20044;-81
2022/03/17 12:32:12;;;;;;;3.97;0.70;;;12.00;67.00;;;;;;5093901;28;20562;-80
2022/03/17 12:34:39;;;;;;;1.02;0.40;;;12.10;66.90;;;;;;5077730;28;20068;-85
2022/03/17 12:37:08;;;;;;;2.15;0.45;;;12.20;66.30;;;;;;5077469;28;20044;-83
2022/03/17 12:39:37;;;;;;;2.35;0.50;;;12.30;66.50;;;;;;5095766;28;20040;-82
2022/03/17 12:42:17;;;;;;;2.97;0.60;;;12.40;66.30;;;;;;5060887;28;20457;-83
2022/03/17 12:45:05;;;;;;;2.10;0.60;;;12.50;65.80;;;;;;5077653;28;20042;-83
2022/03/17 12:47:35;;;;;;;3.50;0.70;;;12.40;65.50;;;;;;5077465;28;20053;-80
2022/03/17 12:50:09;;;;;;;2.58;0.70;;;12.40;65.60;;;;;;5094985;28;20032;-80
2022/03/17 12:52:40;;;;;;;1.48;0.40;;;12.50;65.40;;;;;;5094933;28;20133;-80
2022/03/17 12:55:10;;;;;;;5.35;0.57;;;12.50;65.30;;;;;;5077016;28;20114;-79
2022/03/17 12:57:38;;;;;;;7.13;1.20;;;12.50;65.00;;;;;;5094910;28;20054;-80
2022/03/17 13:00:08;;;;;;;1.63;0.50;;;12.50;64.30;;;;;;5094404;28;20372;-80
2022/03/17 13:02:35;;;;;;;1.83;0.30;;;12.50;64.30;;;;;;5060098;28;20047;-81
2022/03/17 13:06:53;;;;;;;0.60;0.25;;;12.60;64.40;;;;;;5060267;28;20464;-81
2022/03/17 13:07:52;;;;;;;3.72;0.50;;;12.60;64.10;;;;;;5063015;28;20044;-80
2022/03/17 13:10:26;;;;;;;1.90;0.50;;;12.60;63.10;;;;;;5059960;28;20036;-81
2022/03/17 13:15:43;;;;;;;2.50;0.50;;;12.60;62.40;;;;;;5076574;28;20052;-81
2022/03/17 13:18:11;;;;;;;3.50;0.60;;;12.60;62.10;;;;;;5076676;28;20044;-81
2022/03/17 13:20:38;;;;;;;2.00;0.65;;;12.70;61.90;;;;;;5094547;28;20044;-83
2022/03/17 13:23:12;;;;;;;2.58;0.40;;;12.70;60.90;;;;;;5057160;28;20122;-82
2022/03/17 13:25:40;;;;;;;2.88;0.70;;;12.70;61.20;;;;;;5059470;28;20128;-82